Time;durP1;ratioP1;P1;durP2;ratioP2;P2;SDS_P1;SDS_P2;PMS_P1;PMS_P2;Temp;Humidity;BMP_temperature;BMP_pressure;BME280_temperature;BME280_humidity;BME280_pressure;Samples;Min_cycle;Max_cycle;Signal;HPM_P1;HPM_P2
2023/05/15 00:00:48;;;;;;;43.72;27.88;;;12.40;93.50;;;;;;6155054;22;96938;-74
2023/05/15 00:03:14;;;;;;;44.28;28.40;;;12.40;93.60;;;;;;6182908;22;93854;-74
2023/05/15 00:05:39;;;;;;;44.33;28.42;;;12.40;93.70;;;;;;6181834;22;92740;-74
2023/05/15 00:08:05;;;;;;;45.45;28.17;;;12.30;93.70;;;;;;6182255;22;92635;-74
2023/05/15 00:10:31;;;;;;;45.00;28.52;;;12.30;93.80;;;;;;6182342;22;94711;-74
2023/05/15 00:12:56;;;;;;;54.05;30.25;;;12.30;93.90;;;;;;6181310;22;94741;-74
2023/05/15 00:15:22;;;;;;;48.40;29.85;;;12.20;93.90;;;;;;6182143;22;97373;-74
2023/05/15 00:17:47;;;;;;;48.20;29.75;;;12.20;93.90;;;;;;6182187;22;92203;-74
2023/05/15 00:20:13;;;;;;;52.08;29.88;;;12.10;94.00;;;;;;6181955;22;93217;-74
2023/05/15 00:22:39;;;;;;;52.45;31.90;;;12.10;94.00;;;;;;6182832;22;93744;-74
2023/05/15 00:25:05;;;;;;;48.78;31.55;;;12.10;94.10;;;;;;6155200;22;92594;-73
2023/05/15 00:27:31;;;;;;;58.72;31.75;;;12.00;94.20;;;;;;6182172;22;91921;-74
2023/05/15 00:29:56;;;;;;;54.63;32.30;;;11.90;94.30;;;;;;6181179;22;93508;-74
2023/05/15 00:32:22;;;;;;;47.70;32.38;;;11.90;94.40;;;;;;6155033;22;95438;-74
2023/05/15 00:34:48;;;;;;;53.80;33.05;;;11.80;94.40;;;;;;6180912;22;93269;-74
2023/05/15 00:37:13;;;;;;;70.72;36.85;;;11.80;94.50;;;;;;6182768;22;92880;-74
2023/05/15 00:39:39;;;;;;;69.55;38.80;;;11.80;94.70;;;;;;6180816;22;93133;-74
2023/05/15 00:42:06;;;;;;;69.00;39.03;;;11.70;94.90;;;;;;6181712;22;93595;-74
2023/05/15 00:44:33;;;;;;;70.25;41.30;;;11.60;95.00;;;;;;6181475;22;92463;-74
2023/05/15 00:47:01;;;;;;;71.15;40.72;;;11.60;95.00;;;;;;6181709;22;92540;-74
2023/05/15 00:49:28;;;;;;;75.20;41.92;;;11.60;95.10;;;;;;6182449;22;93460;-74
2023/05/15 00:51:56;;;;;;;74.03;41.97;;;11.50;95.10;;;;;;6155077;22;95774;-74
2023/05/15 00:54:23;;;;;;;77.95;42.45;;;11.50;95.00;;;;;;6154791;22;92552;-74
2023/05/15 00:56:50;;;;;;;78.43;44.15;;;11.40;95.00;;;;;;6181769;22;92520;-74
2023/05/15 00:59:17;;;;;;;78.78;44.20;;;11.40;94.90;;;;;;6180475;22;93670;-74
2023/05/15 01:01:44;;;;;;;90.45;43.65;;;11.40;94.90;;;;;;6182024;22;93814;-74
2023/05/15 01:04:10;;;;;;;76.68;42.72;;;11.30;94.90;;;;;;6155000;22;92121;-74
2023/05/15 01:06:36;;;;;;;77.70;43.50;;;11.30;94.90;;;;;;6153501;22;92601;-74
2023/05/15 01:09:03;;;;;;;84.63;45.90;;;11.30;95.00;;;;;;6181694;22;93954;-74
2023/05/15 01:11:34;;;;;;;84.90;46.42;;;11.20;95.20;;;;;;6181059;22;93815;-74
2023/05/15 01:14:05;;;;;;;86.78;47.28;;;11.20;95.40;;;;;;6181541;22;92466;-74
2023/05/15 01:16:31;;;;;;;90.80;47.70;;;11.20;95.40;;;;;;6183186;22;91788;-74
2023/05/15 01:18:57;;;;;;;96.00;48.17;;;11.10;95.60;;;;;;6181526;22;94191;-74
2023/05/15 01:21:37;;;;;;;93.90;49.05;;;11.10;95.50;;;;;;6181124;22;92900;-74
2023/05/15 01:24:21;;;;;;;87.13;46.75;;;11.10;95.60;;;;;;6181053;22;93232;-74
2023/05/15 01:26:50;;;;;;;90.63;48.03;;;11.00;95.60;;;;;;6181663;22;92908;-74
2023/05/15 01:29:29;;;;;;;95.15;50.03;;;11.00;95.50;;;;;;6180934;22;94114;-74
2023/05/15 01:32:09;;;;;;;96.80;50.30;;;11.00;95.80;;;;;;6181041;22;93132;-74
2023/05/15 01:34:56;;;;;;;88.97;47.90;;;10.90;95.70;;;;;;6181988;22;92446;-74
2023/05/15 01:37:25;;;;;;;97.65;49.28;;;10.90;95.70;;;;;;6181285;22;92767;-74
2023/05/15 01:39:56;;;;;;;98.68;51.40;;;10.90;95.80;;;;;;6180789;22;93362;-74
2023/05/15 01:42:26;;;;;;;101.82;52.05;;;10.90;95.60;;;;;;6181735;22;93828;-74
2023/05/15 01:44:56;;;;;;;92.22;48.80;;;10.80;95.90;;;;;;6182632;22;92551;-74
2023/05/15 01:47:30;;;;;;;104.10;51.15;;;10.80;95.70;;;;;;6182846;22;92772;-74
2023/05/15 01:49:56;;;;;;;;;;;10.80;95.70;;;;;;6181409;22;94111;-74
2023/05/15 01:52:31;;;;;;;101.03;50.42;;;10.70;95.80;;;;;;6185481;22;93853;-74
2023/05/15 01:54:57;;;;;;;96.15;48.60;;;10.70;96.00;;;;;;6182952;22;92455;-74
2023/05/15 01:57:24;;;;;;;104.25;51.22;;;10.70;96.00;;;;;;6182788;22;92531;-74
2023/05/15 01:59:50;;;;;;;99.00;49.58;;;10.70;96.00;;;;;;6182049;22;93501;-74
2023/05/15 02:02:18;;;;;;;93.53;50.83;;;10.70;96.00;;;;;;6181718;22;93253;-74
2023/05/15 02:04:45;;;;;;;94.50;48.97;;;10.70;95.90;;;;;;6182994;22;92458;-74
2023/05/15 02:07:12;;;;;;;100.28;48.92;;;10.60;96.10;;;;;;6183210;22;92764;-74
2023/05/15 02:09:40;;;;;;;100.28;49.90;;;10.60;96.10;;;;;;6182681;22;93120;-74
2023/05/15 02:12:06;;;;;;;108.57;50.08;;;10.50;96.20;;;;;;6182074;22;93444;-74
2023/05/15 02:14:32;;;;;;;97.60;50.10;;;10.60;96.30;;;;;;6180849;22;93555;-74
2023/05/15 02:16:58;;;;;;;92.10;49.45;;;10.50;96.20;;;;;;6183055;22;92518;-74
2023/05/15 02:19:24;;;;;;;107.65;50.60;;;10.50;96.10;;;;;;6182977;22;94398;-74
2023/05/15 02:21:50;;;;;;;101.70;49.72;;;10.40;96.30;;;;;;6182405;22;92557;-74
2023/05/15 02:24:15;;;;;;;97.47;48.72;;;10.40;96.40;;;;;;6182167;22;92537;-74
2023/05/15 02:27:03;;;;;;;85.05;45.85;;;10.40;96.40;;;;;;6182118;22;92648;-75
2023/05/15 02:29:36;;;;;;;96.50;47.67;;;10.30;96.20;;;;;;6181600;22;93171;-74
2023/05/15 02:32:17;;;;;;;97.07;49.10;;;10.30;96.20;;;;;;6182332;22;93412;-74
2023/05/15 02:34:45;;;;;;;103.53;48.97;;;10.30;96.50;;;;;;6183985;22;92542;-74
2023/05/15 02:37:13;;;;;;;101.18;51.08;;;10.30;96.50;;;;;;6182248;22;92617;-74
2023/05/15 02:39:42;;;;;;;116.45;52.20;;;10.20;96.70;;;;;;6181699;22;93792;-74
2023/05/15 02:42:10;;;;;;;107.28;49.50;;;10.20;96.80;;;;;;6182277;22;94350;-74
2023/05/15 02:44:37;;;;;;;100.82;50.25;;;10.20;96.90;;;;;;6182310;22;92545;-74
2023/05/15 02:47:04;;;;;;;100.82;48.67;;;10.10;96.90;;;;;;6182814;22;92367;-74
2023/05/15 02:49:30;;;;;;;106.45;49.20;;;10.10;96.90;;;;;;6183053;22;93249;-74
2023/05/15 02:51:56;;;;;;;94.93;47.30;;;10.10;96.90;;;;;;6181657;22;93363;-74
2023/05/15 02:54:21;;;;;;;93.00;47.92;;;10.10;96.70;;;;;;6153731;22;92737;-74
2023/05/15 02:56:47;;;;;;;101.93;48.65;;;10.10;96.60;;;;;;6182315;22;97296;-74
2023/05/15 02:59:17;;;;;;;95.07;47.85;;;10.10;96.80;;;;;;6181518;22;93580;-74
2023/05/15 03:01:43;;;;;;;108.43;48.70;;;10.10;96.60;;;;;;6183081;22;93306;-74
2023/05/15 03:04:09;;;;;;;107.97;49.47;;;10.10;96.70;;;;;;6181890;22;93418;-74
2023/05/15 03:06:35;;;;;;;100.03;48.80;;;10.00;96.90;;;;;;6182243;22;92770;-74
2023/05/15 03:09:00;;;;;;;108.72;50.40;;;10.00;97.00;;;;;;6182116;22;93512;-74
2023/05/15 03:11:26;;;;;;;97.30;49.60;;;10.00;97.10;;;;;;6181686;22;92945;-74
2023/05/15 03:13:51;;;;;;;106.90;49.83;;;10.00;97.20;;;;;;6181896;22;92531;-74
2023/05/15 03:16:17;;;;;;;101.22;48.97;;;10.00;97.20;;;;;;6183068;22;92291;-74
2023/05/15 03:18:43;;;;;;;104.10;50.05;;;10.00;97.10;;;;;;6181586;22;93169;-74
2023/05/15 03:21:08;;;;;;;106.05;51.33;;;10.00;97.30;;;;;;6181430;22;92487;-74
2023/05/15 03:23:34;;;;;;;104.45;51.17;;;10.00;97.50;;;;;;6182426;22;92392;-75
2023/05/15 03:25:59;;;;;;;109.85;49.58;;;10.00;97.50;;;;;;6181945;22;92299;-74
2023/05/15 03:28:25;;;;;;;117.85;50.30;;;10.00;97.50;;;;;;6182139;22;94024;-74
2023/05/15 03:30:51;;;;;;;120.63;51.88;;;10.00;97.70;;;;;;6181537;22;93915;-74
2023/05/15 03:33:16;;;;;;;131.65;53.85;;;10.00;97.60;;;;;;6181521;22;92542;-74
2023/05/15 03:35:43;;;;;;;132.18;52.67;;;10.00;97.80;;;;;;6181569;22;92631;-74
2023/05/15 03:38:09;;;;;;;118.57;51.63;;;10.00;97.80;;;;;;6181746;22;93448;-74
2023/05/15 03:40:38;;;;;;;123.97;51.15;;;10.00;97.80;;;;;;6182335;22;93227;-74
2023/05/15 03:43:04;;;;;;;120.65;51.45;;;10.00;97.90;;;;;;6182131;22;92157;-74
2023/05/15 03:45:32;;;;;;;125.65;50.88;;;10.00;97.80;;;;;;6182090;22;91724;-74
2023/05/15 03:47:58;;;;;;;132.40;53.53;;;10.10;97.80;;;;;;6181305;22;93478;-74
2023/05/15 03:50:23;;;;;;;131.60;51.83;;;10.10;97.80;;;;;;6181658;22;94007;-74
2023/05/15 03:52:49;;;;;;;124.68;51.50;;;10.10;97.70;;;;;;6180228;22;93475;-74
2023/05/15 03:55:15;;;;;;;142.88;54.45;;;10.10;97.80;;;;;;6155279;22;92621;-74
2023/05/15 03:57:40;;;;;;;132.40;51.42;;;10.10;97.70;;;;;;6181267;22;93556;-74
2023/05/15 04:00:09;;;;;;;139.57;51.55;;;10.10;97.60;;;;;;6181503;22;94147;-74
2023/05/15 04:02:36;;;;;;;120.65;49.22;;;10.00;97.60;;;;;;6154888;22;92610;-74
2023/05/15 04:05:05;;;;;;;143.32;52.95;;;10.00;97.40;;;;;;6181449;22;92092;-74
2023/05/15 04:07:33;;;;;;;123.93;50.22;;;10.00;97.60;;;;;;6181979;22;92851;-74
2023/05/15 04:10:00;;;;;;;136.85;52.80;;;10.00;97.50;;;;;;6182389;22;92837;-74
2023/05/15 04:12:28;;;;;;;120.35;49.72;;;10.00;97.60;;;;;;6181348;22;92696;-74
2023/05/15 04:14:58;;;;;;;136.15;52.42;;;10.00;97.50;;;;;;6154390;22;92564;-74
2023/05/15 04:17:24;;;;;;;135.63;52.25;;;10.00;97.50;;;;;;6154068;22;98024;-74
2023/05/15 04:19:50;;;;;;;132.13;51.60;;;10.00;97.60;;;;;;6181028;22;93863;-74
2023/05/15 04:22:15;;;;;;;127.63;51.88;;;10.10;97.60;;;;;;6182798;22;92369;-74
2023/05/15 04:24:41;;;;;;;128.35;51.20;;;10.10;97.50;;;;;;6181831;22;92314;-74
2023/05/15 04:27:07;;;;;;;122.88;51.20;;;10.10;97.40;;;;;;6181521;22;93292;-74
2023/05/15 04:29:32;;;;;;;132.35;51.55;;;10.10;97.10;;;;;;6181526;22;93719;-74
2023/05/15 04:31:58;;;;;;;114.07;50.53;;;10.10;97.20;;;;;;6180805;22;92011;-74
2023/05/15 04:34:25;;;;;;;131.02;51.97;;;10.20;97.00;;;;;;6183394;22;91782;-74
2023/05/15 04:36:50;;;;;;;117.25;51.03;;;10.20;97.00;;;;;;6180671;22;93533;-74
2023/05/15 04:39:16;;;;;;;111.53;50.33;;;10.30;96.80;;;;;;6180705;22;93386;-74
2023/05/15 04:41:42;;;;;;;112.35;49.55;;;10.30;96.60;;;;;;6181189;22;93337;-74
2023/05/15 04:44:07;;;;;;;111.28;47.58;;;10.30;96.30;;;;;;6181369;22;92809;-74
2023/05/15 04:46:36;;;;;;;117.72;50.65;;;10.20;96.20;;;;;;6182559;22;93260;-74
2023/05/15 04:49:01;;;;;;;114.65;49.70;;;10.20;96.40;;;;;;6180640;22;93335;-74
2023/05/15 04:51:27;;;;;;;105.03;47.85;;;10.20;96.30;;;;;;6181546;22;92312;-74
2023/05/15 04:53:52;;;;;;;109.53;50.03;;;10.20;96.30;;;;;;6181231;22;92496;-74
2023/05/15 04:56:18;;;;;;;118.90;49.70;;;10.30;96.40;;;;;;6181039;22;93547;-74
2023/05/15 04:58:44;;;;;;;121.93;52.40;;;10.30;96.20;;;;;;6181862;22;92866;-73
2023/05/15 05:01:09;;;;;;;119.97;52.25;;;10.30;96.20;;;;;;6180537;22;92693;-74
2023/05/15 05:03:35;;;;;;;125.35;50.08;;;10.30;96.30;;;;;;6180993;22;92515;-74
2023/05/15 05:06:00;;;;;;;119.85;51.72;;;10.20;96.20;;;;;;6180306;22;94533;-74
2023/05/15 05:08:26;;;;;;;109.88;49.58;;;10.20;96.10;;;;;;6180571;22;94048;-74
2023/05/15 05:10:58;;;;;;;110.15;49.33;;;10.20;96.10;;;;;;6180983;22;92652;-76
2023/05/15 05:13:24;;;;;;;113.57;49.05;;;10.20;96.00;;;;;;6182254;22;92455;-76
2023/05/15 05:15:49;;;;;;;116.40;50.70;;;10.30;96.10;;;;;;6180152;22;93529;-76
2023/05/15 05:18:15;;;;;;;103.57;48.17;;;10.30;95.90;;;;;;6155230;22;96248;-76
2023/05/15 05:20:40;;;;;;;104.00;47.95;;;10.30;95.70;;;;;;6182596;22;92452;-76
2023/05/15 05:23:06;;;;;;;105.15;48.53;;;10.30;95.60;;;;;;6183582;22;91712;-76
2023/05/15 05:25:34;;;;;;;103.53;48.80;;;10.30;95.70;;;;;;6158981;22;97077;-78
2023/05/15 05:28:00;;;;;;;98.60;46.15;;;10.30;95.70;;;;;;6183285;22;93292;-77
2023/05/15 05:30:26;;;;;;;107.90;49.65;;;10.30;95.60;;;;;;6184076;22;93545;-76
2023/05/15 05:32:52;;;;;;;108.93;49.20;;;10.40;95.30;;;;;;6182658;22;92502;-74
2023/05/15 05:35:17;;;;;;;100.88;47.40;;;10.40;95.20;;;;;;6181836;22;95529;-75
2023/05/15 05:37:43;;;;;;;98.35;47.65;;;10.30;95.30;;;;;;6182196;22;92517;-74
2023/05/15 05:40:09;;;;;;;105.95;48.60;;;10.40;95.20;;;;;;6182359;22;92570;-75
2023/05/15 05:42:35;;;;;;;100.75;48.50;;;10.50;95.20;;;;;;6181003;22;92491;-74
2023/05/15 05:45:01;;;;;;;106.47;48.83;;;10.50;95.10;;;;;;6181145;22;93066;-75
2023/05/15 05:47:26;;;;;;;107.47;50.67;;;10.50;95.40;;;;;;6155602;22;96600;-76
2023/05/15 05:49:53;;;;;;;106.88;50.15;;;10.50;95.10;;;;;;6166688;22;92647;-75
2023/05/15 05:52:19;;;;;;;107.03;47.90;;;10.50;95.00;;;;;;6181227;22;92431;-79
2023/05/15 05:54:46;;;;;;;111.63;50.47;;;10.50;95.00;;;;;;6180971;22;94641;-75
2023/05/15 05:57:13;;;;;;;105.43;49.33;;;10.50;94.90;;;;;;6181659;22;93734;-75
2023/05/15 05:59:39;;;;;;;98.43;47.17;;;10.60;94.50;;;;;;6154798;22;92762;-75
2023/05/15 06:02:05;;;;;;;109.53;48.15;;;10.60;94.80;;;;;;6156584;22;92507;-77
2023/05/15 06:04:33;;;;;;;104.80;48.42;;;10.60;94.60;;;;;;6183959;22;93523;-75
2023/05/15 06:06:59;;;;;;;100.57;49.75;;;10.60;94.30;;;;;;6180947;22;93358;-74
2023/05/15 06:09:25;;;;;;;102.80;48.63;;;10.60;94.40;;;;;;6162817;22;92329;-75
2023/05/15 06:11:51;;;;;;;111.32;50.58;;;10.70;94.50;;;;;;6150500;22;91570;-75
2023/05/15 06:14:16;;;;;;;107.15;49.05;;;10.70;94.40;;;;;;6149825;22;94686;-75
2023/05/15 06:16:42;;;;;;;104.85;51.75;;;10.80;94.40;;;;;;6178067;22;92947;-75
2023/05/15 06:19:08;;;;;;;106.38;50.95;;;10.80;94.30;;;;;;6177594;22;93339;-75
2023/05/15 06:21:34;;;;;;;108.20;49.50;;;10.90;94.10;;;;;;6177807;22;92669;-75
2023/05/15 06:23:59;;;;;;;95.35;46.35;;;10.90;94.00;;;;;;6154292;22;97148;-74
2023/05/15 06:26:25;;;;;;;89.28;46.60;;;10.90;93.60;;;;;;6182214;22;93329;-75
2023/05/15 06:28:51;;;;;;;94.00;47.45;;;10.90;93.50;;;;;;6166929;22;92482;-75
2023/05/15 06:31:16;;;;;;;93.10;47.83;;;10.90;93.20;;;;;;6155497;22;92711;-75
2023/05/15 06:33:42;;;;;;;86.10;46.00;;;10.90;93.30;;;;;;6182186;22;92935;-74
2023/05/15 06:36:08;;;;;;;98.00;46.88;;;11.00;93.00;;;;;;6181926;22;93758;-75
2023/05/15 06:38:33;;;;;;;92.22;47.95;;;11.10;92.90;;;;;;6155099;22;92533;-75
2023/05/15 06:40:59;;;;;;;93.00;48.90;;;11.00;92.40;;;;;;6182759;22;92015;-76
2023/05/15 06:43:25;;;;;;;89.70;46.88;;;11.10;92.30;;;;;;6182034;22;94673;-75
2023/05/15 06:45:50;;;;;;;92.93;47.85;;;11.10;92.30;;;;;;6182026;22;94274;-75
2023/05/15 06:48:16;;;;;;;93.75;47.70;;;11.10;92.20;;;;;;6182029;22;92725;-75
2023/05/15 06:50:42;;;;;;;104.35;49.70;;;11.10;92.40;;;;;;6181535;22;92260;-75
2023/05/15 06:53:07;;;;;;;96.78;50.28;;;11.30;92.40;;;;;;6181647;22;94213;-75
2023/05/15 06:55:36;;;;;;;93.35;49.55;;;11.30;92.10;;;;;;6183531;22;92447;-75
2023/05/15 06:58:03;;;;;;;92.10;49.10;;;11.40;91.50;;;;;;6182775;22;92692;-75
2023/05/15 07:00:28;;;;;;;92.55;49.67;;;11.40;91.30;;;;;;6182478;22;91831;-75
2023/05/15 07:02:54;;;;;;;87.32;47.75;;;11.40;91.40;;;;;;6181830;22;92700;-76
2023/05/15 07:05:20;;;;;;;87.40;47.47;;;11.70;91.50;;;;;;6181075;22;93268;-76
2023/05/15 07:07:46;;;;;;;93.65;48.22;;;11.80;91.30;;;;;;6147200;22;93732;-76
2023/05/15 07:10:12;;;;;;;94.15;48.20;;;11.90;90.40;;;;;;6181102;22;92604;-76
2023/05/15 07:12:37;;;;;;;88.38;48.95;;;12.00;91.10;;;;;;6181846;22;93913;-76
2023/05/15 07:15:04;;;;;;;88.90;48.05;;;12.00;90.90;;;;;;6154468;22;93993;-75
2023/05/15 07:17:32;;;;;;;81.15;45.70;;;12.10;90.50;;;;;;6181753;22;92482;-76
2023/05/15 07:19:57;;;;;;;95.93;51.95;;;12.30;90.00;;;;;;6182495;22;92647;-76
2023/05/15 07:22:25;;;;;;;89.43;48.20;;;12.40;87.70;;;;;;6181253;22;92998;-76
2023/05/15 07:24:51;;;;;;;86.82;48.92;;;12.40;88.80;;;;;;6180981;22;91823;-77
2023/05/15 07:27:16;;;;;;;81.53;48.00;;;12.50;87.80;;;;;;6181580;22;92659;-76
2023/05/15 07:29:42;;;;;;;90.05;46.80;;;12.60;87.50;;;;;;6181886;22;92687;-76
2023/05/15 07:32:08;;;;;;;83.32;46.97;;;12.80;87.70;;;;;;6181095;22;94165;-75
2023/05/15 07:34:33;;;;;;;84.25;46.13;;;12.90;86.80;;;;;;6182403;22;94388;-76
2023/05/15 07:36:59;;;;;;;83.82;47.70;;;12.90;88.10;;;;;;6155019;22;92335;-75
2023/05/15 07:39:25;;;;;;;83.13;47.78;;;12.80;87.00;;;;;;6154677;22;92712;-75
2023/05/15 07:41:50;;;;;;;83.28;45.65;;;12.80;85.60;;;;;;6181313;22;93480;-75
2023/05/15 07:44:16;;;;;;;82.72;45.63;;;12.70;85.70;;;;;;6181102;22;93504;-75
2023/05/15 07:46:42;;;;;;;73.07;42.63;;;12.70;87.30;;;;;;6182305;22;92330;-75
2023/05/15 07:49:07;;;;;;;78.53;44.10;;;12.70;84.80;;;;;;6182407;22;91911;-74
2023/05/15 07:51:33;;;;;;;81.85;44.25;;;12.90;84.80;;;;;;6181586;22;93697;-74
2023/05/15 07:53:58;;;;;;;76.35;43.83;;;13.20;84.90;;;;;;6182205;22;93336;-74
2023/05/15 07:56:24;;;;;;;77.13;45.58;;;13.30;85.40;;;;;;6154226;22;93528;-75
2023/05/15 07:58:50;;;;;;;77.70;43.83;;;13.30;85.10;;;;;;6181685;22;92220;-75
2023/05/15 08:01:15;;;;;;;72.80;43.33;;;13.30;83.20;;;;;;6181769;22;94206;-74
2023/05/15 08:03:41;;;;;;;76.63;44.58;;;13.10;84.30;;;;;;6180485;22;92992;-75
2023/05/15 08:06:07;;;;;;;78.20;44.33;;;13.30;84.80;;;;;;6183278;22;92702;-75
2023/05/15 08:08:33;;;;;;;72.78;41.03;;;13.60;85.90;;;;;;6181550;22;92511;-78
2023/05/15 08:10:58;;;;;;;69.90;41.58;;;13.90;82.40;;;;;;6181935;22;93600;-76
2023/05/15 08:13:24;;;;;;;68.65;40.20;;;14.10;82.10;;;;;;6156792;22;96405;-78
2023/05/15 08:15:50;;;;;;;68.53;41.83;;;14.10;80.00;;;;;;6182033;22;92513;-77
2023/05/15 08:18:15;;;;;;;74.80;42.22;;;14.30;80.90;;;;;;6182129;22;92651;-76
2023/05/15 08:20:41;;;;;;;74.22;44.55;;;14.60;83.70;;;;;;6153357;22;97199;-75
2023/05/15 08:23:07;;;;;;;71.97;42.30;;;14.70;77.90;;;;;;6181776;22;93412;-76
2023/05/15 08:25:32;;;;;;;65.90;40.45;;;14.60;79.30;;;;;;6182590;22;92548;-76
2023/05/15 08:27:58;;;;;;;67.60;41.15;;;14.80;79.10;;;;;;6155230;22;92537;-76
2023/05/15 08:30:24;;;;;;;67.18;41.53;;;14.90;77.80;;;;;;6181915;22;93687;-77
2023/05/15 08:32:50;;;;;;;71.38;42.67;;;15.10;76.90;;;;;;6155752;22;96148;-78
2023/05/15 08:35:15;;;;;;;67.28;38.80;;;15.30;77.80;;;;;;6181626;22;92185;-75
2023/05/15 08:37:41;;;;;;;62.72;39.10;;;15.10;76.90;;;;;;6183399;22;91829;-77
2023/05/15 08:40:08;;;;;;;57.13;36.92;;;15.10;76.40;;;;;;6181695;22;93564;-77
2023/05/15 08:42:46;;;;;;;63.08;37.40;;;15.20;73.50;;;;;;6181988;22;93073;-76
2023/05/15 08:45:13;;;;;;;61.22;39.83;;;15.50;76.70;;;;;;6182331;22;93421;-75
2023/05/15 08:47:40;;;;;;;63.00;40.10;;;15.70;74.30;;;;;;6181147;22;92384;-76
2023/05/15 08:50:14;;;;;;;61.92;41.17;;;16.00;74.60;;;;;;6181122;22;93024;-75
2023/05/15 08:52:41;;;;;;;60.22;40.08;;;16.10;73.40;;;;;;6183272;22;93956;-74
2023/05/15 08:55:08;;;;;;;64.22;40.00;;;16.20;74.30;;;;;;6182953;22;92618;-81
2023/05/15 08:57:34;;;;;;;55.17;36.72;;;16.30;72.20;;;;;;6182547;22;92456;-75
2023/05/15 09:00:03;;;;;;;58.08;36.25;;;16.30;73.90;;;;;;6155226;22;96775;-75
2023/05/15 09:02:28;;;;;;;61.78;38.03;;;16.50;70.70;;;;;;6183297;22;93483;-75
2023/05/15 09:04:54;;;;;;;54.00;35.55;;;16.50;69.70;;;;;;6155729;22;92489;-75
2023/05/15 09:07:20;;;;;;;55.25;35.58;;;16.70;70.60;;;;;;6182605;22;92446;-75
2023/05/15 09:09:46;;;;;;;58.28;36.47;;;17.00;70.50;;;;;;6181214;22;94944;-75
2023/05/15 09:12:16;;;;;;;49.00;33.75;;;17.30;68.30;;;;;;6182211;22;100271;-75
2023/05/15 09:14:45;;;;;;;53.78;34.88;;;17.50;68.60;;;;;;6182650;22;92497;-75
2023/05/15 09:17:11;;;;;;;54.88;37.00;;;17.40;68.70;;;;;;6182878;22;93190;-75
2023/05/15 09:19:41;;;;;;;50.40;35.55;;;17.40;68.30;;;;;;6182659;22;93782;-75
2023/05/15 09:22:22;;;;;;;52.95;35.10;;;17.50;68.90;;;;;;6181948;22;93885;-75
2023/05/15 09:24:50;;;;;;;42.03;30.67;;;17.70;67.30;;;;;;6155503;22;93863;-76
2023/05/15 09:27:16;;;;;;;47.50;32.65;;;17.70;65.70;;;;;;6182480;22;91769;-75
2023/05/15 09:29:41;;;;;;;49.10;34.83;;;17.80;65.30;;;;;;6154418;22;95013;-75
2023/05/15 09:32:09;;;;;;;49.72;34.05;;;17.90;66.20;;;;;;6180722;22;93378;-74
2023/05/15 09:34:37;;;;;;;42.70;30.98;;;17.90;66.40;;;;;;6182226;22;93588;-74
2023/05/15 09:37:05;;;;;;;47.53;34.28;;;17.90;67.80;;;;;;6154282;22;92434;-74
2023/05/15 09:39:32;;;;;;;39.70;29.13;;;18.20;66.30;;;;;;6181071;22;92358;-74
2023/05/15 09:42:11;;;;;;;50.70;34.78;;;18.50;67.10;;;;;;6181264;22;93491;-74
2023/05/15 09:44:45;;;;;;;54.65;37.38;;;18.90;66.10;;;;;;6153484;22;92587;-74
2023/05/15 09:47:15;;;;;;;51.95;35.30;;;18.50;64.30;;;;;;6181849;22;93117;-74
2023/05/15 09:49:43;;;;;;;43.08;31.50;;;18.60;66.80;;;;;;6182098;22;93623;-74
2023/05/15 09:52:09;;;;;;;45.90;32.70;;;18.70;67.00;;;;;;6182309;22;93346;-74
2023/05/15 09:54:36;;;;;;;45.97;32.47;;;18.80;64.40;;;;;;6181985;22;92590;-74
2023/05/15 09:57:10;;;;;;;42.58;29.83;;;18.90;63.30;;;;;;6181216;22;92733;-74
2023/05/15 09:59:43;;;;;;;43.63;31.10;;;18.90;63.80;;;;;;6179868;22;94514;-73
2023/05/15 10:02:12;;;;;;;49.60;35.83;;;18.90;63.90;;;;;;6180051;22;94441;-72
2023/05/15 10:04:37;;;;;;;44.40;32.67;;;18.80;63.60;;;;;;6182669;22;92555;-73
2023/05/15 10:07:08;;;;;;;51.45;35.60;;;19.10;66.30;;;;;;6180793;22;92477;-76
2023/05/15 10:09:33;;;;;;;48.28;34.78;;;19.30;64.10;;;;;;6181616;22;101000;-73
2023/05/15 10:11:59;;;;;;;49.30;32.15;;;19.50;63.60;;;;;;6180514;22;93957;-76
2023/05/15 10:14:26;;;;;;;48.42;32.70;;;19.90;60.90;;;;;;6153720;22;92491;-75
2023/05/15 10:16:54;;;;;;;39.97;29.83;;;19.70;61.20;;;;;;6152255;22;91708;-73
2023/05/15 10:19:24;;;;;;;47.63;31.83;;;19.90;61.60;;;;;;6181671;22;94087;-73
2023/05/15 10:21:52;;;;;;;42.15;30.20;;;20.40;60.00;;;;;;6180732;22;93362;-76
2023/05/15 10:24:20;;;;;;;42.45;31.83;;;20.40;58.80;;;;;;6152064;22;93663;-73
2023/05/15 10:26:46;;;;;;;46.15;33.63;;;20.60;60.60;;;;;;6181045;22;92270;-73
2023/05/15 10:29:14;;;;;;;42.85;31.95;;;20.40;59.80;;;;;;6180792;22;93470;-74
2023/05/15 10:31:40;;;;;;;50.25;34.80;;;20.40;60.60;;;;;;6154312;22;97648;-73
2023/05/15 10:34:08;;;;;;;44.58;31.80;;;20.50;59.50;;;;;;6179197;22;92662;-75
2023/05/15 10:36:35;;;;;;;53.40;36.95;;;20.50;59.40;;;;;;6180497;22;92501;-74
2023/05/15 10:39:02;;;;;;;50.17;34.38;;;20.60;58.40;;;;;;6179399;22;93497;-73
2023/05/15 10:41:29;;;;;;;47.95;33.08;;;20.40;61.50;;;;;;6181123;22;93199;-73
2023/05/15 10:43:57;;;;;;;47.80;32.33;;;20.20;61.00;;;;;;6179753;22;92444;-73
2023/05/15 10:46:24;;;;;;;46.75;34.70;;;20.40;61.70;;;;;;6180862;22;92572;-74
2023/05/15 10:48:50;;;;;;;41.47;30.67;;;20.80;62.30;;;;;;6180218;22;94598;-82
2023/05/15 10:51:27;;;;;;;50.80;35.38;;;20.90;60.20;;;;;;6153264;22;93633;-76
2023/05/15 10:53:55;;;;;;;50.20;35.88;;;20.70;58.80;;;;;;6153560;22;92605;-76
2023/05/15 10:56:28;;;;;;;47.95;33.80;;;20.80;59.50;;;;;;6180982;22;92545;-76
2023/05/15 10:58:54;;;;;;;50.08;35.10;;;20.90;59.80;;;;;;6181157;22;92793;-76
2023/05/15 11:01:48;;;;;;;48.75;33.97;;;21.10;58.10;;;;;;6181281;22;93257;-75
2023/05/15 11:04:18;;;;;;;49.42;34.15;;;20.90;58.50;;;;;;6150538;22;92515;-77
2023/05/15 11:06:48;;;;;;;49.95;33.53;;;20.60;60.20;;;;;;6180330;22;92766;-78
2023/05/15 11:09:33;;;;;;;50.55;33.35;;;20.50;59.80;;;;;;6180400;22;93676;-76
2023/05/15 11:12:07;;;;;;;47.13;32.50;;;20.50;61.10;;;;;;6153587;22;95444;-80
2023/05/15 11:14:38;;;;;;;50.53;34.15;;;20.50;61.70;;;;;;6180288;22;93623;-76
2023/05/15 11:17:09;;;;;;;53.83;35.45;;;20.40;61.50;;;;;;6182043;22;92576;-75
2023/05/15 11:19:53;;;;;;;48.42;34.28;;;20.60;61.10;;;;;;6182223;22;92623;-77
2023/05/15 11:22:29;;;;;;;47.05;30.67;;;20.90;61.30;;;;;;6154210;22;99658;-76
2023/05/15 11:24:58;;;;;;;51.53;33.25;;;21.60;60.10;;;;;;6180281;22;92414;-76
2023/05/15 11:27:31;;;;;;;46.53;31.83;;;21.40;57.40;;;;;;6180410;22;92565;-76
2023/05/15 11:30:03;;;;;;;48.70;33.42;;;21.40;58.50;;;;;;6153366;22;96600;-76
2023/05/15 11:32:47;;;;;;;41.00;27.98;;;21.20;57.10;;;;;;6167599;22;92694;-76
2023/05/15 11:35:31;;;;;;;49.72;32.92;;;21.40;59.20;;;;;;6153950;22;92636;-76
2023/05/15 11:38:09;;;;;;;42.97;29.63;;;21.80;56.90;;;;;;6181402;22;92433;-77
2023/05/15 11:40:57;;;;;;;47.80;32.88;;;22.20;59.20;;;;;;6180807;22;94472;-76
2023/05/15 11:43:24;;;;;;;42.67;29.98;;;22.20;56.10;;;;;;6153469;22;102657;-77
2023/05/15 11:45:54;;;;;;;42.78;30.33;;;22.30;58.30;;;;;;6165377;22;92498;-77
2023/05/15 11:48:20;;;;;;;43.30;30.10;;;22.30;54.30;;;;;;6153814;22;92566;-76
2023/05/15 11:50:46;;;;;;;43.33;29.85;;;22.30;55.60;;;;;;6180205;22;93043;-76
2023/05/15 11:53:13;;;;;;;43.22;30.95;;;22.20;55.90;;;;;;6180045;22;93431;-76
2023/05/15 11:55:42;;;;;;;45.05;30.65;;;22.30;56.00;;;;;;6154376;22;92608;-77
2023/05/15 11:58:14;;;;;;;41.28;29.27;;;22.80;56.80;;;;;;6181039;22;91880;-77
2023/05/15 12:00:44;;;;;;;42.58;31.02;;;23.10;56.20;;;;;;6180506;22;93886;-76
2023/05/15 12:03:15;;;;;;;45.67;33.08;;;22.60;55.30;;;;;;6167310;22;94116;-76
2023/05/15 12:05:41;;;;;;;45.90;32.25;;;22.20;57.30;;;;;;6180995;22;93247;-78
2023/05/15 12:08:12;;;;;;;46.95;34.53;;;22.40;57.20;;;;;;6179100;22;92335;-78
2023/05/15 12:10:42;;;;;;;47.97;32.80;;;22.40;56.10;;;;;;6155072;22;95670;-78
2023/05/15 12:13:09;;;;;;;46.42;33.28;;;22.20;57.40;;;;;;6180118;22;94157;-75
2023/05/15 12:15:39;;;;;;;47.45;33.67;;;22.30;56.00;;;;;;6181200;22;92416;-75
2023/05/15 12:18:08;;;;;;;48.28;33.80;;;22.50;55.10;;;;;;6180946;22;92544;-77
2023/05/15 12:20:45;;;;;;;46.90;35.20;;;22.10;56.20;;;;;;6180635;22;93694;-75
2023/05/15 12:23:15;;;;;;;51.80;35.58;;;21.90;56.30;;;;;;6180714;22;92779;-75
2023/05/15 12:25:43;;;;;;;51.40;33.60;;;21.50;57.10;;;;;;6180697;22;92495;-74